Time;durP1;ratioP1;P1;durP2;ratioP2;P2;SDS_P1;SDS_P2;PMS_P1;PMS_P2;Temp;Humidity;BMP_temperature;BMP_pressure;BME280_temperature;BME280_humidity;BME280_pressure;Samples;Min_cycle;Max_cycle;Signal;HPM_P1;HPM_P2
2022/10/31 00:01:00;;;;;;;10.00;5.97;;;;;;;12.29;100.00;98564.00;5053715;28;20585;-70
2022/10/31 00:03:27;;;;;;;13.33;6.80;;;;;;;12.28;100.00;98565.03;5052304;28;20663;-70
2022/10/31 00:05:53;;;;;;;12.57;6.60;;;;;;;12.32;100.00;98573.41;5053597;28;20227;-70
2022/10/31 00:08:20;;;;;;;10.50;6.53;;;;;;;12.26;100.00;98568.94;5052415;28;20213;-70
2022/10/31 00:10:47;;;;;;;9.40;6.13;;;;;;;12.22;100.00;98563.25;5053921;28;20234;-70
2022/10/31 00:13:15;;;;;;;12.43;6.60;;;;;;;12.18;100.00;98572.69;5052434;28;20212;-70
2022/10/31 00:15:41;;;;;;;9.67;6.70;;;;;;;12.19;100.00;98569.00;5045032;28;20211;-69
2022/10/31 00:18:09;;;;;;;9.07;5.83;;;;;;;12.23;100.00;98561.38;5049020;28;20697;-70
2022/10/31 00:20:37;;;;;;;9.77;6.27;;;;;;;12.17;100.00;98576.38;5053121;28;20606;-70
2022/10/31 00:23:04;;;;;;;9.73;6.07;;;;;;;12.16;100.00;98574.75;5037105;28;20222;-70
2022/10/31 00:25:35;;;;;;;9.23;6.67;;;;;;;12.13;100.00;98574.38;5033458;28;20239;-70
2022/10/31 00:28:02;;;;;;;13.60;7.03;;;;;;;12.12;100.00;98570.09;5052138;28;20559;-70
2022/10/31 00:30:28;;;;;;;11.27;6.80;;;;;;;12.13;100.00;98571.72;5051733;28;20218;-70
2022/10/31 00:32:55;;;;;;;14.23;7.17;;;;;;;12.15;100.00;98573.13;5052398;28;20208;-70
2022/10/31 00:35:21;;;;;;;13.50;7.20;;;;;;;12.14;100.00;98576.84;5052426;28;20203;-69
2022/10/31 00:37:47;;;;;;;12.23;7.13;;;;;;;12.15;100.00;98570.47;5052677;28;20212;-70
2022/10/31 00:40:14;;;;;;;12.40;7.47;;;;;;;12.10;100.00;98570.28;5052025;28;20715;-70
2022/10/31 00:42:41;;;;;;;10.70;7.10;;;;;;;12.11;100.00;98569.25;5053324;28;20209;-70
2022/10/31 00:45:11;;;;;;;11.93;7.00;;;;;;;12.11;100.00;98573.78;5052270;28;20212;-70
2022/10/31 00:47:38;;;;;;;12.00;6.87;;;;;;;12.07;100.00;98573.38;5050379;28;20201;-70
2022/10/31 00:50:08;;;;;;;15.67;7.50;;;;;;;12.06;100.00;98571.75;5052263;28;20226;-70
2022/10/31 00:52:35;;;;;;;9.73;6.90;;;;;;;12.02;100.00;98575.88;5053733;28;20211;-70
2022/10/31 00:55:01;;;;;;;14.97;7.73;;;;;;;12.02;100.00;98573.22;5052042;28;20212;-70
2022/10/31 00:57:28;;;;;;;12.13;7.20;;;;;;;12.01;100.00;98570.75;5052174;28;20215;-70
2022/10/31 00:59:54;;;;;;;11.53;6.53;;;;;;;11.99;100.00;98567.50;5050914;28;20215;-70
2022/10/31 01:02:20;;;;;;;12.30;7.27;;;;;;;12.00;100.00;98571.78;5052800;28;20218;-70
2022/10/31 01:04:47;;;;;;;9.53;7.03;;;;;;;12.02;100.00;98575.09;5051691;28;20219;-70
2022/10/31 01:07:13;;;;;;;12.00;6.83;;;;;;;12.02;100.00;98564.44;5056182;28;20235;-70
2022/10/31 01:09:40;;;;;;;10.83;6.77;;;;;;;11.98;100.00;98565.88;5055464;28;20667;-70
2022/10/31 01:12:07;;;;;;;13.73;6.87;;;;;;;11.93;100.00;98569.16;5056685;28;20227;-70
2022/10/31 01:14:33;;;;;;;12.07;6.57;;;;;;;11.91;100.00;98563.25;5046756;28;20225;-70
2022/10/31 01:16:59;;;;;;;13.90;7.10;;;;;;;11.91;100.00;98565.09;5036711;28;20547;-70
2022/10/31 01:19:26;;;;;;;11.20;7.20;;;;;;;11.90;100.00;98563.47;5042484;28;20209;-70
2022/10/31 01:21:55;;;;;;;8.93;6.37;;;;;;;11.88;100.00;98563.69;5056289;28;20239;-70
2022/10/31 01:24:21;;;;;;;9.50;6.70;;;;;;;11.86;100.00;98557.75;5055653;28;20375;-69
2022/10/31 01:26:48;;;;;;;8.87;6.47;;;;;;;11.87;100.00;98564.72;5056394;28;20236;-70
2022/10/31 01:29:14;;;;;;;8.10;6.10;;;;;;;11.86;100.00;98568.41;5055334;28;20217;-70
2022/10/31 01:31:40;;;;;;;11.70;6.50;;;;;;;11.86;100.00;98562.25;5056091;28;20228;-70
2022/10/31 01:34:07;;;;;;;13.73;6.87;;;;;;;11.84;100.00;98567.00;5055395;28;20218;-70
2022/10/31 01:36:36;;;;;;;10.53;6.73;;;;;;;11.86;100.00;98562.25;5054794;28;20251;-70
2022/10/31 01:39:08;;;;;;;9.93;6.53;;;;;;;11.82;100.00;98556.56;5050941;28;20216;-70
2022/10/31 01:41:37;;;;;;;10.30;6.20;;;;;;;11.81;100.00;98570.09;5055462;28;20227;-69
2022/10/31 01:44:15;;;;;;;9.93;6.20;;;;;;;11.82;100.00;98564.53;5054639;28;20212;-70
2022/10/31 01:46:47;;;;;;;12.73;6.33;;;;;;;11.79;100.00;98558.81;5056019;28;20603;-70
2022/10/31 01:49:22;;;;;;;12.30;7.07;;;;;;;11.79;100.00;98562.28;5050522;28;20218;-70
2022/10/31 01:51:54;;;;;;;8.70;6.40;;;;;;;11.79;100.00;98558.81;5035844;28;20706;-70
2022/10/31 01:54:24;;;;;;;7.17;6.10;;;;;;;11.76;100.00;98565.38;5053739;28;20207;-69
2022/10/31 01:56:56;;;;;;;11.73;5.87;;;;;;;11.73;100.00;98547.19;5055696;28;20572;-70
2022/10/31 01:59:26;;;;;;;12.17;6.17;;;;;;;11.74;100.00;98548.81;5052773;28;20216;-69
2022/10/31 02:01:53;;;;;;;14.40;6.47;;;;;;;11.71;100.00;98549.22;5055879;28;20241;-69
2022/10/31 02:04:28;;;;;;;8.87;6.83;;;;;;;11.70;100.00;98547.59;5041625;28;20203;-70
2022/10/31 02:07:01;;;;;;;16.60;6.47;;;;;;;11.72;100.00;98540.22;5035346;28;20270;-70
2022/10/31 02:09:29;;;;;;;12.03;6.60;;;;;;;11.74;100.00;98551.47;5050234;28;20198;-70
2022/10/31 02:11:58;;;;;;;12.30;6.53;;;;;;;11.76;100.00;98551.25;5053851;28;20249;-70
2022/10/31 02:14:27;;;;;;;8.37;6.20;;;;;;;11.73;100.00;98549.00;5055709;28;20208;-70
2022/10/31 02:16:54;;;;;;;8.13;6.30;;;;;;;11.72;100.00;98553.53;5054175;28;20210;-70
2022/10/31 02:19:40;;;;;;;9.73;6.43;;;;;;;11.67;100.00;98547.22;5052510;28;20685;-70
2022/10/31 02:22:20;;;;;;;8.47;6.33;;;;;;;11.69;100.00;98553.13;5055288;28;20244;-70
2022/10/31 02:25:29;;;;;;;9.97;6.00;;;;;;;11.68;100.00;98549.66;5052147;28;20196;-70
2022/10/31 02:28:14;;;;;;;9.13;6.03;;;;;;;11.67;100.00;98550.69;5055509;28;20531;-70
2022/10/31 02:30:46;;;;;;;10.23;6.53;;;;;;;11.61;100.00;98554.19;5054401;28;20238;-70
2022/10/31 02:33:31;;;;;;;10.73;6.33;;;;;;;11.53;100.00;98551.75;5055393;28;20211;-70
2022/10/31 02:36:00;;;;;;;9.57;6.20;;;;;;;11.50;100.00;98544.22;5051777;28;20211;-70
2022/10/31 02:38:39;;;;;;;10.13;5.93;;;;;;;11.47;100.00;98541.97;5054959;28;20212;-69
2022/10/31 02:41:19;;;;;;;11.43;6.40;;;;;;;11.50;100.00;98552.19;5052982;28;20260;-70
2022/10/31 02:44:01;;;;;;;9.97;6.17;;;;;;;11.41;100.00;98545.47;5055184;28;20195;-70
2022/10/31 02:46:35;;;;;;;9.80;5.93;;;;;;;11.41;100.00;98547.31;5051331;28;20222;-70
2022/10/31 02:49:10;;;;;;;11.37;6.47;;;;;;;11.36;100.00;98553.28;5035215;28;20192;-70
2022/10/31 02:51:37;;;;;;;9.40;6.60;;;;;;;11.32;100.00;98554.75;5034707;28;20272;-70
2022/10/31 02:54:03;;;;;;;12.17;6.67;;;;;;;11.30;100.00;98551.44;5052530;28;20222;-70
2022/10/31 02:56:30;;;;;;;10.23;6.03;;;;;;;11.31;100.00;98547.78;5054633;28;20206;-70
2022/10/31 02:59:02;;;;;;;9.83;6.23;;;;;;;11.30;100.00;98546.13;5053011;28;20208;-70
2022/10/31 03:01:47;;;;;;;11.43;6.13;;;;;;;11.28;100.00;98538.34;5054843;28;20233;-69
2022/10/31 03:04:30;;;;;;;10.53;5.67;;;;;;;11.23;100.00;98540.84;5053603;28;20207;-70
2022/10/31 03:07:11;;;;;;;11.30;5.90;;;;;;;11.26;100.00;98541.44;5053300;28;20664;-70
2022/10/31 03:09:47;;;;;;;9.60;6.50;;;;;;;11.25;100.00;98537.97;5051300;28;20202;-69
2022/10/31 03:12:39;;;;;;;8.33;5.90;;;;;;;11.27;100.00;98540.41;5052904;28;20204;-70
2022/10/31 03:15:08;;;;;;;12.00;6.97;;;;;;;11.27;100.00;98539.38;5034345;28;20236;-70
2022/10/31 03:17:40;;;;;;;8.23;5.50;;;;;;;11.23;100.00;98548.00;5035632;28;20206;-70
2022/10/31 03:20:11;;;;;;;10.80;6.37;;;;;;;11.25;100.00;98537.97;5053562;28;20226;-70
2022/10/31 03:22:40;;;;;;;9.27;6.03;;;;;;;11.26;100.00;98539.59;5052095;28;20227;-70
2022/10/31 03:25:08;;;;;;;9.07;6.17;;;;;;;11.27;100.00;98543.91;5037484;28;20205;-70
2022/10/31 03:27:37;;;;;;;9.57;5.70;;;;;;;11.24;100.00;98536.34;5052465;28;20228;-70
2022/10/31 03:30:07;;;;;;;10.03;5.57;;;;;;;11.26;100.00;98544.91;5043694;28;20383;-70
2022/10/31 03:32:46;;;;;;;10.10;6.40;;;;;;;11.22;100.00;98543.72;5053236;28;20196;-70
2022/10/31 03:35:15;;;;;;;8.83;5.73;;;;;;;11.22;100.00;98541.06;5050118;28;20669;-70
2022/10/31 03:37:43;;;;;;;8.77;6.10;;;;;;;11.22;100.00;98549.06;5053157;28;20201;-69
2022/10/31 03:40:13;;;;;;;7.97;5.77;;;;;;;11.19;100.00;98544.13;5054032;28;20229;-70
2022/10/31 03:42:44;;;;;;;8.23;5.63;;;;;;;11.17;100.00;98542.72;5048720;28;20206;-69
2022/10/31 03:45:26;;;;;;;12.07;5.93;;;;;;;11.18;100.00;98542.50;5053604;28;20217;-70
2022/10/31 03:47:54;;;;;;;10.30;5.53;;;;;;;11.15;100.00;98545.59;5052890;28;20227;-70
2022/10/31 03:50:25;;;;;;;6.30;5.67;;;;;;;11.16;100.00;98554.41;5053847;28;20238;-70
2022/10/31 03:53:14;;;;;;;7.20;5.63;;;;;;;11.18;100.00;98547.84;5052992;28;20198;-70
2022/10/31 03:55:48;;;;;;;12.70;5.83;;;;;;;11.16;100.00;98543.75;5052648;28;20191;-70
2022/10/31 03:58:26;;;;;;;10.53;6.03;;;;;;;11.18;100.00;98539.84;5050981;28;20201;-70
2022/10/31 04:00:56;;;;;;;10.90;6.00;;;;;;;11.12;100.00;98538.00;5053742;28;20226;-70
2022/10/31 04:03:29;;;;;;;9.53;5.33;;;;;;;11.13;100.00;98542.34;5051332;28;20197;-70
2022/10/31 04:05:59;;;;;;;8.43;5.40;;;;;;;11.07;100.00;98541.31;5050492;28;20221;-70
2022/10/31 04:08:29;;;;;;;9.37;5.40;;;;;;;11.07;100.00;98540.50;5053298;28;20216;-70
2022/10/31 04:10:58;;;;;;;8.83;5.37;;;;;;;11.02;100.00;98543.78;5052602;28;20225;-70
2022/10/31 04:13:29;;;;;;;9.53;5.73;;;;;;;11.01;100.00;98544.00;5051629;28;20208;-70
2022/10/31 04:15:56;;;;;;;8.50;5.17;;;;;;;11.03;100.00;98544.59;5051527;28;20198;-70
2022/10/31 04:18:24;;;;;;;8.33;5.40;;;;;;;11.01;100.00;98539.47;5053397;28;20202;-70
2022/10/31 04:21:07;;;;;;;8.30;5.47;;;;;;;10.99;100.00;98533.56;5051862;28;20224;-70
2022/10/31 04:23:34;;;;;;;9.10;5.23;;;;;;;10.98;100.00;98540.94;5053475;28;20203;-70
2022/10/31 04:26:01;;;;;;;7.30;5.77;;;;;;;10.98;100.00;98531.94;5052090;28;20212;-70
2022/10/31 04:28:27;;;;;;;7.97;5.97;;;;;;;10.96;100.00;98530.50;5052271;28;20577;-70
2022/10/31 04:30:54;;;;;;;10.27;6.13;;;;;;;10.97;100.00;98532.13;5050765;28;20232;-69
2022/10/31 04:33:21;;;;;;;6.97;5.47;;;;;;;10.94;100.00;98530.72;5053172;28;20205;-70
2022/10/31 04:35:47;;;;;;;7.03;5.60;;;;;;;10.93;100.00;98532.78;5051993;28;20202;-70
2022/10/31 04:38:14;;;;;;;11.53;6.00;;;;;;;10.93;100.00;98530.91;5047567;28;20210;-70
2022/10/31 04:40:40;;;;;;;11.50;5.73;;;;;;;10.88;100.00;98528.91;5045621;28;20217;-69
2022/10/31 04:43:06;;;;;;;8.87;5.77;;;;;;;10.82;100.00;98526.25;5054734;28;20574;-70
2022/10/31 04:45:33;;;;;;;6.67;5.47;;;;;;;10.82;100.00;98516.41;5041146;28;20205;-70
2022/10/31 04:47:59;;;;;;;10.83;6.37;;;;;;;10.74;100.00;98515.84;5057023;28;20229;-69
2022/10/31 04:50:25;;;;;;;8.63;6.33;;;;;;;10.73;100.00;98511.56;5056073;28;20221;-70
2022/10/31 04:52:52;;;;;;;9.07;5.70;;;;;;;10.76;100.00;98506.63;5057155;28;20212;-70
2022/10/31 04:55:18;;;;;;;7.07;5.80;;;;;;;10.72;100.00;98507.25;5056163;28;20205;-69
2022/10/31 04:57:46;;;;;;;10.27;5.70;;;;;;;10.71;100.00;98509.09;5056945;28;20205;-69
2022/10/31 05:00:15;;;;;;;9.30;5.63;;;;;;;10.71;100.00;98502.94;5053884;28;20229;-70
2022/10/31 05:02:53;;;;;;;7.77;5.90;;;;;;;10.73;100.00;98504.38;5046663;28;20205;-70
2022/10/31 05:05:23;;;;;;;8.80;5.73;;;;;;;10.63;100.00;98505.81;5055596;28;20201;-70
2022/10/31 05:07:51;;;;;;;8.33;5.73;;;;;;;10.64;100.00;98494.19;5056464;28;20232;-69
2022/10/31 05:10:20;;;;;;;9.73;6.37;;;;;;;10.63;100.00;98500.50;5054690;28;20248;-70
2022/10/31 05:12:51;;;;;;;7.70;5.70;;;;;;;10.63;100.00;98497.84;5055410;28;20205;-70
2022/10/31 05:15:19;;;;;;;10.17;5.47;;;;;;;10.64;100.00;98494.19;5055406;28;20205;-70
2022/10/31 05:17:45;;;;;;;11.80;5.93;;;;;;;10.62;100.00;98493.56;5055054;28;20201;-69
2022/10/31 05:20:14;;;;;;;9.43;5.30;;;;;;;10.61;100.00;98497.25;5054589;28;20225;-70
2022/10/31 05:22:44;;;;;;;7.80;5.43;;;;;;;10.59;100.00;98497.47;5055238;28;20224;-70
2022/10/31 05:25:12;;;;;;;9.63;5.70;;;;;;;10.60;100.00;98493.78;5044539;28;20668;-70
2022/10/31 05:27:46;;;;;;;10.40;5.77;;;;;;;10.56;100.00;98500.56;5055429;28;20217;-70
2022/10/31 05:30:15;;;;;;;9.43;5.73;;;;;;;10.56;100.00;98491.75;5055656;28;20225;-70
2022/10/31 05:32:46;;;;;;;9.10;5.43;;;;;;;10.55;100.00;98496.22;5055092;28;20212;-70
2022/10/31 05:35:15;;;;;;;8.80;5.80;;;;;;;10.56;100.00;98497.06;5054516;28;20204;-70
2022/10/31 05:37:41;;;;;;;8.73;5.70;;;;;;;10.47;100.00;98485.03;5054459;28;20201;-70
2022/10/31 05:40:10;;;;;;;8.87;5.47;;;;;;;10.45;100.00;98487.09;5055934;28;20225;-70
2022/10/31 05:42:39;;;;;;;6.37;4.90;;;;;;;10.44;100.00;98490.75;5055107;28;20216;-70
2022/10/31 05:45:07;;;;;;;11.67;5.00;;;;;;;10.44;100.00;98483.59;5055872;28;20205;-70
2022/10/31 05:47:33;;;;;;;10.10;5.93;;;;;;;10.46;100.00;98483.41;5054690;28;20718;-70
2022/10/31 05:50:00;;;;;;;7.07;5.17;;;;;;;10.43;100.00;98486.44;5053910;28;20576;-70
2022/10/31 05:52:26;;;;;;;7.83;5.47;;;;;;;10.40;100.00;98476.22;5053015;28;20227;-70
2022/10/31 05:54:52;;;;;;;10.37;5.53;;;;;;;10.40;100.00;98486.84;5055817;28;20209;-70
2022/10/31 05:57:19;;;;;;;9.27;5.23;;;;;;;10.36;100.00;98475.03;5054717;28;20220;-70
2022/10/31 05:59:45;;;;;;;10.10;5.57;;;;;;;10.35;100.00;98478.69;5055649;28;20216;-70
2022/10/31 06:02:11;;;;;;;7.97;5.93;;;;;;;10.30;100.00;98474.00;5054383;28;20209;-70
2022/10/31 06:04:38;;;;;;;9.37;5.93;;;;;;;10.24;100.00;98482.81;5055175;28;20684;-70
2022/10/31 06:07:04;;;;;;;13.00;6.63;;;;;;;10.26;100.00;98482.59;5054570;28;20233;-70
2022/10/31 06:09:30;;;;;;;8.07;6.13;;;;;;;10.25;100.00;98480.97;5039238;28;20217;-70
2022/10/31 06:11:57;;;;;;;7.73;5.80;;;;;;;10.23;100.00;98477.72;5047349;28;20228;-70
2022/10/31 06:14:23;;;;;;;8.97;5.37;;;;;;;10.23;100.00;98477.72;5054484;28;20228;-70
2022/10/31 06:16:49;;;;;;;9.57;5.57;;;;;;;10.23;100.00;98475.06;5053462;28;20224;-69
2022/10/31 06:19:16;;;;;;;9.30;5.30;;;;;;;10.28;100.00;98472.59;5055370;28;20576;-70
2022/10/31 06:21:42;;;;;;;10.53;6.07;;;;;;;10.27;100.00;98482.38;5053801;28;20705;-69
2022/10/31 06:24:08;;;;;;;9.40;5.60;;;;;;;10.30;100.00;98475.84;5052889;28;20683;-70
2022/10/31 06:26:35;;;;;;;9.70;5.40;;;;;;;10.35;100.00;98479.53;5052588;28;20205;-69
2022/10/31 06:29:01;;;;;;;7.87;5.87;;;;;;;10.36;100.00;98483.00;5054318;28;20220;-69
2022/10/31 06:31:27;;;;;;;8.67;5.67;;;;;;;10.37;100.00;98479.31;5055073;28;20232;-69
2022/10/31 06:33:54;;;;;;;12.40;5.77;;;;;;;10.40;100.00;98477.06;5048521;28;20205;-70
2022/10/31 06:36:20;;;;;;;8.20;5.33;;;;;;;10.41;100.00;98476.03;5035209;28;20202;-69
2022/10/31 06:38:46;;;;;;;11.77;5.47;;;;;;;10.41;100.00;98475.22;5034953;28;20565;-70
2022/10/31 06:41:13;;;;;;;9.20;5.67;;;;;;;10.44;100.00;98480.09;5034826;28;20230;-70
2022/10/31 06:43:39;;;;;;;9.70;6.57;;;;;;;10.46;100.00;98480.72;5034906;28;20202;-70
2022/10/31 06:46:06;;;;;;;12.30;5.60;;;;;;;10.50;100.00;98485.41;5045455;28;20198;-70
2022/10/31 06:48:33;;;;;;;7.80;5.47;;;;;;;10.55;100.00;98482.16;5053557;28;20225;-70
2022/10/31 06:51:00;;;;;;;8.30;5.70;;;;;;;10.58;100.00;98492.34;5053980;28;20229;-70
2022/10/31 06:53:29;;;;;;;6.03;4.97;;;;;;;10.60;100.00;98490.31;5053322;28;20208;-70
2022/10/31 06:55:57;;;;;;;8.60;5.67;;;;;;;10.61;100.00;98491.94;5053497;28;20201;-70
2022/10/31 06:58:23;;;;;;;10.17;5.73;;;;;;;10.64;100.00;98487.00;5045213;28;20683;-70
2022/10/31 07:00:50;;;;;;;9.67;5.40;;;;;;;10.66;100.00;98489.47;5053482;28;20232;-70
2022/10/31 07:03:17;;;;;;;10.63;5.70;;;;;;;10.69;100.00;98489.84;5053361;28;20205;-70
2022/10/31 07:05:43;;;;;;;7.90;5.40;;;;;;;10.72;100.00;98493.94;5052300;28;20668;-70
2022/10/31 07:08:14;;;;;;;6.47;5.10;;;;;;;10.75;100.00;98493.53;5054440;28;20217;-69
2022/10/31 07:10:42;;;;;;;10.80;5.17;;;;;;;10.73;100.00;98490.28;5053114;28;20225;-70
2022/10/31 07:13:15;;;;;;;8.47;5.00;;;;;;;10.78;100.00;98483.28;5054077;28;20205;-70
2022/10/31 07:15:43;;;;;;;10.43;5.17;;;;;;;10.80;100.00;98489.22;5053159;28;20213;-70
2022/10/31 07:18:12;;;;;;;6.67;5.10;;;;;;;10.83;100.00;98494.13;5052832;28;20679;-70
2022/10/31 07:20:38;;;;;;;8.70;5.03;;;;;;;10.85;100.00;98496.56;5051051;28;20704;-70
2022/10/31 07:23:05;;;;;;;7.73;5.10;;;;;;;10.91;100.00;98501.88;5053813;28;20213;-70
2022/10/31 07:25:31;;;;;;;8.80;5.30;;;;;;;10.91;100.00;98493.88;5053225;28;20216;-70
2022/10/31 07:27:57;;;;;;;10.27;4.80;;;;;;;10.99;100.00;98501.63;5053757;28;20233;-70
2022/10/31 07:30:24;;;;;;;8.87;4.93;;;;;;;10.98;100.00;98505.34;5051583;28;20226;-70
2022/10/31 07:32:51;;;;;;;8.73;4.97;;;;;;;11.00;100.00;98507.78;5042842;28;20575;-69
2022/10/31 07:35:20;;;;;;;6.60;4.47;;;;;;;11.02;100.00;98509.22;5040663;28;20197;-70
2022/10/31 07:37:47;;;;;;;11.40;5.03;;;;;;;10.99;100.00;98512.28;5042155;28;20199;-69
2022/10/31 07:40:14;;;;;;;9.53;4.60;;;;;;;11.03;100.00;98504.69;5040632;28;20222;-70
2022/10/31 07:42:43;;;;;;;9.37;4.70;;;;;;;11.09;100.00;98501.19;5033328;28;20217;-69
2022/10/31 07:45:12;;;;;;;7.13;4.70;;;;;;;11.05;100.00;98505.31;5051666;28;20206;-69
2022/10/31 07:47:42;;;;;;;8.20;4.73;;;;;;;11.10;100.00;98498.31;5053709;28;20221;-69
2022/10/31 07:50:10;;;;;;;10.07;4.30;;;;;;;11.13;100.00;98491.78;5051587;28;20239;-70
2022/10/31 07:52:37;;;;;;;7.83;4.63;;;;;;;11.10;100.00;98497.50;5052343;28;20212;-70
2022/10/31 07:55:04;;;;;;;8.63;4.40;;;;;;;11.10;100.00;98492.97;5052261;28;20208;-69
2022/10/31 07:57:31;;;;;;;7.73;5.03;;;;;;;11.21;100.00;98496.81;5052372;28;20203;-70
2022/10/31 07:59:57;;;;;;;7.63;5.00;;;;;;;11.27;100.00;98495.16;5052138;28;20217;-69
2022/10/31 08:02:24;;;;;;;10.77;5.00;;;;;;;11.33;100.00;98497.81;5050537;28;20211;-70
2022/10/31 08:04:50;;;;;;;6.30;4.40;;;;;;;11.32;100.00;98501.50;5053196;28;20201;-70
2022/10/31 08:07:17;;;;;;;7.83;5.30;;;;;;;11.39;100.00;98494.28;5048222;28;20551;-70
2022/10/31 08:09:44;;;;;;;7.50;4.43;;;;;;;11.39;100.00;98502.25;5044614;28;20213;-71
2022/10/31 08:12:10;;;;;;;9.80;5.20;;;;;;;11.52;100.00;98496.06;5052418;28;20205;-70
2022/10/31 08:14:36;;;;;;;8.10;4.80;;;;;;;11.54;100.00;98497.50;5051216;28;20210;-69
2022/10/31 08:17:03;;;;;;;10.20;4.87;;;;;;;11.51;100.00;98499.75;5053149;28;20206;-69
2022/10/31 08:19:29;;;;;;;6.13;4.60;;;;;;;11.53;100.00;98501.16;5052369;28;20206;-69
2022/10/31 08:21:55;;;;;;;8.90;4.87;;;;;;;11.59;100.00;98503.00;5052688;28;20247;-70
2022/10/31 08:24:23;;;;;;;7.83;4.80;;;;;;;11.75;100.00;98504.34;5051368;28;20723;-70
2022/10/31 08:26:49;;;;;;;11.33;5.30;;;;;;;11.84;100.00;98501.19;5051826;28;20592;-70
2022/10/31 08:29:16;;;;;;;5.83;4.60;;;;;;;11.78;100.00;98498.56;5052559;28;20221;-69
2022/10/31 08:31:43;;;;;;;7.57;4.77;;;;;;;11.67;100.00;98493.94;5037370;28;20674;-70
2022/10/31 08:34:09;;;;;;;8.63;4.80;;;;;;;11.76;100.00;98498.78;5051214;28;20203;-70
2022/10/31 08:36:36;;;;;;;8.83;4.77;;;;;;;11.88;100.00;98489.06;5051009;28;20218;-70
2022/10/31 08:39:02;;;;;;;8.13;4.57;;;;;;;11.83;100.00;98488.91;5051005;28;20221;-70
2022/10/31 08:41:30;;;;;;;10.13;5.60;;;;;;;11.98;100.00;98491.28;5037505;28;20228;-70
2022/10/31 08:43:56;;;;;;;8.30;5.07;;;;;;;11.97;100.00;98489.63;5045260;28;20209;-70
2022/10/31 08:46:22;;;;;;;12.70;5.20;;;;;;;11.96;100.00;98483.50;5052788;28;20211;-69
2022/10/31 08:48:49;;;;;;;8.03;4.47;;;;;;;11.92;100.00;98476.13;5051650;28;20219;-69
2022/10/31 08:51:15;;;;;;;9.53;5.20;;;;;;;12.01;100.00;98483.66;5048912;28;20231;-69
2022/10/31 08:53:42;;;;;;;9.60;4.90;;;;;;;12.06;100.00;98478.47;5050479;28;20213;-69
2022/10/31 08:56:08;;;;;;;9.37;4.70;;;;;;;12.11;100.00;98467.97;5050948;28;20575;-69
2022/10/31 08:58:34;;;;;;;7.67;4.50;;;;;;;12.18;100.00;98465.25;5051861;28;20199;-69
2022/10/31 09:01:02;;;;;;;9.73;4.67;;;;;;;12.33;100.00;98468.38;5052779;28;20236;-69
2022/10/31 09:03:31;;;;;;;10.13;5.43;;;;;;;12.54;100.00;98462.66;5051558;28;20215;-69
2022/10/31 09:06:05;;;;;;;10.10;4.77;;;;;;;12.45;100.00;98459.47;5052676;28;20262;-69
2022/10/31 09:08:33;;;;;;;11.20;5.27;;;;;;;12.42;100.00;98469.72;5051945;28;20223;-69
2022/10/31 09:10:59;;;;;;;13.13;5.53;;;;;;;12.56;100.00;98468.56;5049916;28;20244;-69
2022/10/31 09:13:26;;;;;;;12.63;4.63;;;;;;;12.89;100.00;98467.16;5051645;28;20201;-70
2022/10/31 09:15:53;;;;;;;10.57;5.43;;;;;;;12.85;100.00;98471.31;5051869;28;20208;-69
2022/10/31 09:18:23;;;;;;;6.10;4.50;;;;;;;12.61;100.00;98472.19;5051773;28;20203;-69
2022/10/31 09:20:50;;;;;;;7.97;5.13;;;;;;;12.63;100.00;98470.16;5052274;28;20228;-69
2022/10/31 09:23:20;;;;;;;9.20;5.33;;;;;;;12.58;100.00;98461.16;5048686;28;20216;-70
2022/10/31 09:25:48;;;;;;;10.10;5.37;;;;;;;12.81;100.00;98459.47;5033865;28;20193;-70
2022/10/31 09:28:17;;;;;;;7.63;5.47;;;;;;;13.06;100.00;98457.53;5036944;28;20235;-70
2022/10/31 09:30:47;;;;;;;8.60;5.20;;;;;;;13.05;100.00;98455.91;5035816;28;20229;-70
2022/10/31 09:33:14;;;;;;;7.77;5.90;;;;;;;12.94;100.00;98453.16;5049990;28;20216;-70
2022/10/31 09:35:41;;;;;;;9.63;5.10;;;;;;;12.95;100.00;98458.28;5056087;28;20230;-70
2022/10/31 09:38:14;;;;;;;10.33;5.33;;;;;;;12.96;100.00;98461.75;5045721;28;20213;-70
2022/10/31 09:41:08;;;;;;;10.93;5.37;;;;;;;12.98;100.00;98457.84;5043446;28;20233;-70
2022/10/31 09:44:01;;;;;;;7.67;5.03;;;;;;;13.16;100.00;98462.34;5045395;28;20211;-70
2022/10/31 09:46:35;;;;;;;10.30;5.13;;;;;;;13.11;100.00;98449.66;5055121;28;20210;-70
2022/10/31 09:49:47;;;;;;;10.77;5.10;;;;;;;13.15;100.00;98448.19;5044128;28;20214;-70
2022/10/31 09:52:33;;;;;;;5.97;5.00;;;;;;;13.11;100.00;98449.66;5036417;28;20199;-70
2022/10/31 09:55:06;;;;;;;8.23;5.17;;;;;;;13.18;100.00;98447.75;5042677;28;20197;-70
2022/10/31 09:57:36;;;;;;;8.90;5.40;;;;;;;13.14;100.00;98451.06;5053591;28;20208;-70
2022/10/31 10:00:06;;;;;;;7.53;5.77;;;;;;;13.13;100.00;98449.44;5055608;28;20212;-70
2022/10/31 10:02:40;;;;;;;7.77;5.80;;;;;;;13.23;100.00;98450.53;5055775;28;20275;-70
2022/10/31 10:05:12;;;;;;;12.63;5.23;;;;;;;13.35;100.00;98448.75;5054866;28;20532;-70
2022/10/31 10:07:54;;;;;;;13.03;5.60;;;;;;;13.48;100.00;98442.41;5054654;28;20192;-70
2022/10/31 10:10:37;;;;;;;9.07;5.97;;;;;;;13.59;100.00;98442.44;5054409;28;20225;-70
2022/10/31 10:13:34;;;;;;;8.90;5.30;;;;;;;13.70;100.00;98446.19;5055037;28;20196;-70
2022/10/31 10:16:41;;;;;;;12.63;6.10;;;;;;;13.68;100.00;98445.56;5055888;28;20185;-70
2022/10/31 10:19:10;;;;;;;12.10;5.63;;;;;;;13.77;100.00;98437.00;5053979;28;20560;-71
2022/10/31 10:22:02;;;;;;;8.47;5.37;;;;;;;14.00;100.00;98439.72;5054773;28;20232;-70
2022/10/31 10:25:14;;;;;;;13.63;6.07;;;;;;;14.13;100.00;98434.16;5054588;28;20660;-70
2022/10/31 10:27:50;;;;;;;12.03;5.30;;;;;;;14.18;100.00;98434.25;5055094;28;20186;-70
2022/10/31 10:30:20;;;;;;;9.67;5.63;;;;;;;14.42;100.00;98430.56;5053542;28;20231;-70
2022/10/31 10:32:50;;;;;;;10.60;5.43;;;;;;;14.11;100.00;98428.19;5055855;28;20209;-70
2022/10/31 10:35:17;;;;;;;11.07;5.33;;;;;;;14.17;100.00;98429.13;5055866;28;20582;-70
2022/10/31 10:37:47;;;;;;;13.20;5.97;;;;;;;14.23;100.00;98434.41;5054593;28;20209;-71
2022/10/31 10:40:18;;;;;;;8.77;6.17;;;;;;;14.27;100.00;98422.19;5054707;28;20304;-70
2022/10/31 10:48:50;;;;;;;12.13;5.60;;;;;;;14.46;100.00;98421.00;5054654;28;20602;-70
2022/10/31 10:51:48;;;;;;;9.17;5.20;;;;;;;14.79;100.00;98415.81;5054282;28;20239;-71
2022/10/31 10:54:45;;;;;;;8.03;5.40;;;;;;;15.15;98.89;98417.34;5053682;28;20201;-70
2022/10/31 10:57:36;;;;;;;9.83;5.60;;;;;;;15.22;99.39;98410.81;5054558;28;20190;-70
2022/10/31 11:00:17;;;;;;;9.60;5.77;;;;;;;14.85;100.00;98409.53;5054145;28;20510;-70
2022/10/31 11:02:43;;;;;;;10.87;6.33;;;;;;;14.64;100.00;98407.50;5054618;28;20189;-70
2022/10/31 11:05:19;;;;;;;9.33;5.50;;;;;;;14.63;100.00;98400.53;5054286;28;20234;-70
2022/10/31 11:07:45;;;;;;;9.57;5.50;;;;;;;14.79;100.00;98394.41;5054187;28;20191;-70
2022/10/31 11:10:16;;;;;;;10.80;6.13;;;;;;;14.77;100.00;98393.84;5054496;28;20239;-71
2022/10/31 11:13:00;;;;;;;10.30;5.80;;;;;;;14.83;100.00;98386.75;5054156;28;20201;-70
2022/10/31 11:15:28;;;;;;;10.93;5.77;;;;;;;14.91;100.00;98381.00;5054047;28;20194;-70
2022/10/31 11:17:57;;;;;;;8.83;5.60;;;;;;;14.92;100.00;98371.94;5054212;28;20557;-70
2022/10/31 11:20:31;;;;;;;9.97;5.77;;;;;;;15.08;100.00;98374.66;5053878;28;20591;-70
2022/10/31 11:23:18;;;;;;;9.43;6.03;;;;;;;15.13;99.66;98364.03;5053648;28;20224;-70
2022/10/31 11:25:57;;;;;;;12.83;5.83;;;;;;;15.21;99.51;98366.31;5054126;28;20189;-70
2022/10/31 11:28:23;;;;;;;8.57;5.60;;;;;;;15.19;99.59;98370.31;5054080;28;20213;-70
2022/10/31 11:30:57;;;;;;;10.43;6.13;;;;;;;15.23;99.99;98358.84;5053863;28;20221;-70
2022/10/31 11:33:33;;;;;;;9.60;6.27;;;;;;;15.37;100.00;98357.53;5053887;28;20193;-70
2022/10/31 11:36:00;;;;;;;9.70;5.77;;;;;;;15.41;98.92;98356.00;5053578;28;20651;-70
2022/10/31 11:38:34;;;;;;;8.50;5.70;;;;;;;15.41;99.49;98347.94;5052721;28;20211;-71
2022/10/31 11:41:20;;;;;;;12.03;6.17;;;;;;;15.43;99.03;98342.34;5053349;28;20225;-70
2022/10/31 11:43:52;;;;;;;8.10;6.00;;;;;;;15.49;99.26;98330.66;5053706;28;20567;-70